Time;durP1;ratioP1;P1;durP2;ratioP2;P2;SDS_P1;SDS_P2;PMS_P1;PMS_P2;Temp;Humidity;BMP_temperature;BMP_pressure;BME280_temperature;BME280_humidity;BME280_pressure;Samples;Min_cycle;Max_cycle;Signal;HPM_P1;HPM_P2
2022/09/21 00:01:13;;;;;;;14.25;7.45;;;19.20;71.60;;;;;;4852198;29;20029;-72
2022/09/21 00:03:42;;;;;;;11.77;7.43;;;19.20;71.50;;;;;;4837108;29;20037;-72
2022/09/21 00:06:15;;;;;;;13.80;7.70;;;19.20;71.50;;;;;;4835268;29;20048;-73
2022/09/21 00:08:42;;;;;;;13.18;7.50;;;19.20;71.80;;;;;;4840028;29;20572;-73
2022/09/21 00:11:15;;;;;;;14.15;7.38;;;19.20;71.90;;;;;;4836637;29;20029;-74
2022/09/21 00:13:42;;;;;;;14.00;7.68;;;19.10;71.70;;;;;;4852106;29;20040;-74
2022/09/21 00:16:08;;;;;;;15.95;7.10;;;19.20;71.60;;;;;;4852047;29;20097;-73
2022/09/21 00:18:35;;;;;;;13.57;7.47;;;19.10;71.60;;;;;;4855812;29;20049;-74
2022/09/21 00:21:05;;;;;;;11.38;6.93;;;19.10;71.60;;;;;;4847238;29;20392;-75
2022/09/21 00:23:33;;;;;;;15.43;7.47;;;19.10;71.50;;;;;;4846893;29;20409;-74
2022/09/21 00:26:18;;;;;;;12.98;7.10;;;19.10;71.60;;;;;;4846519;29;20037;-74
2022/09/21 00:28:45;;;;;;;13.32;6.70;;;19.10;71.70;;;;;;4839601;29;20267;-74
2022/09/21 00:31:13;;;;;;;13.00;7.35;;;19.10;71.70;;;;;;4846820;29;20036;-75
2022/09/21 00:33:40;;;;;;;26.05;19.52;;;19.00;71.10;;;;;;4836165;29;20034;-75
2022/09/21 00:36:11;;;;;;;20.70;13.88;;;19.00;69.80;;;;;;4846787;29;20037;-72
2022/09/21 00:38:37;;;;;;;22.60;14.88;;;19.00;70.10;;;;;;4856587;29;20030;-73
2022/09/21 00:41:05;;;;;;;18.73;12.85;;;19.00;70.00;;;;;;4835776;29;20026;-74
2022/09/21 00:43:34;;;;;;;18.58;13.00;;;19.00;70.30;;;;;;4840385;29;20038;-73
2022/09/21 00:46:04;;;;;;;17.27;12.57;;;19.00;70.60;;;;;;4846701;29;20473;-73
2022/09/21 00:48:30;;;;;;;19.50;12.85;;;19.00;70.70;;;;;;4838476;29;20030;-74
2022/09/21 00:51:00;;;;;;;18.42;12.77;;;19.00;70.60;;;;;;4840724;29;20030;-74
2022/09/21 00:53:27;;;;;;;22.58;12.73;;;19.00;70.90;;;;;;4836452;29;20396;-72
2022/09/21 00:55:56;;;;;;;20.08;12.35;;;19.10;71.10;;;;;;4833039;29;20104;-73
2022/09/21 00:58:27;;;;;;;18.75;13.23;;;19.10;70.80;;;;;;4837807;29;20038;-72
2022/09/21 01:00:54;;;;;;;25.60;12.00;;;19.10;70.80;;;;;;4844111;29;20036;-73
2022/09/21 01:03:19;;;;;;;27.83;12.13;;;19.10;71.20;;;;;;4845199;29;20029;-74
2022/09/21 01:05:45;;;;;;;20.95;12.02;;;19.10;71.10;;;;;;4846506;29;20052;-72
2022/09/21 01:08:14;;;;;;;33.80;12.73;;;19.00;71.40;;;;;;4849817;29;20038;-72
2022/09/21 01:11:13;;;;;;;26.50;11.95;;;19.00;71.20;;;;;;4857988;29;20442;-72
2022/09/21 01:13:46;;;;;;;31.92;12.68;;;19.00;71.40;;;;;;4831922;29;20104;-73
2022/09/21 01:16:20;;;;;;;42.53;12.43;;;19.00;71.40;;;;;;4839221;29;20113;-73
2022/09/21 01:18:50;;;;;;;23.27;12.00;;;19.00;71.30;;;;;;4841794;29;20026;-73
2022/09/21 01:21:16;;;;;;;29.30;12.00;;;19.00;71.20;;;;;;4839614;29;20030;-72
2022/09/21 01:24:06;;;;;;;24.48;11.75;;;19.00;71.30;;;;;;4845049;29;20033;-72
2022/09/21 01:26:54;;;;;;;24.52;12.48;;;19.00;71.10;;;;;;4851831;29;20421;-72
2022/09/21 01:29:37;;;;;;;21.00;10.77;;;19.00;71.40;;;;;;4851166;29;20065;-72
2022/09/21 01:32:15;;;;;;;21.27;11.15;;;19.00;71.40;;;;;;4852836;29;20029;-72
2022/09/21 01:34:58;;;;;;;18.63;10.70;;;19.00;71.20;;;;;;4851535;29;20057;-72
2022/09/21 01:37:50;;;;;;;20.42;11.23;;;19.00;71.30;;;;;;4851803;29;20056;-72
2022/09/21 01:40:25;;;;;;;17.92;10.82;;;19.00;71.40;;;;;;4855945;29;20117;-72
2022/09/21 01:42:54;;;;;;;18.35;10.82;;;19.00;71.20;;;;;;4849031;29;20030;-73
2022/09/21 01:45:26;;;;;;;17.65;10.82;;;19.00;71.30;;;;;;4856496;29;20033;-72
2022/09/21 01:47:55;;;;;;;21.38;10.55;;;19.00;71.40;;;;;;4841546;29;20026;-72
2022/09/21 01:50:23;;;;;;;;;;;19.00;71.30;;;;;;4828487;29;20033;-72
2022/09/21 01:52:59;;;;;;;19.67;10.73;;;19.00;71.40;;;;;;4849713;29;19912;-72
2022/09/21 01:55:39;;;;;;;20.77;9.90;;;18.90;71.30;;;;;;4856957;29;20036;-73
2022/09/21 01:58:12;;;;;;;22.48;10.73;;;19.00;71.40;;;;;;4848726;29;20392;-73
2022/09/21 02:00:40;;;;;;;22.65;11.20;;;19.00;71.20;;;;;;4842372;29;20512;-73
2022/09/21 02:03:45;;;;;;;20.23;11.25;;;18.90;71.50;;;;;;4841397;29;20029;-72
2022/09/21 02:06:12;;;;;;;15.32;9.77;;;19.00;71.50;;;;;;4796864;29;20427;-72
2022/09/21 02:08:38;;;;;;;15.50;9.95;;;19.00;72.10;;;;;;4840593;29;20038;-72
2022/09/21 02:11:05;;;;;;;14.88;9.73;;;18.90;71.40;;;;;;4854347;29;20032;-73
2022/09/21 02:13:35;;;;;;;14.90;9.10;;;19.00;71.50;;;;;;4856506;29;20093;-72
2022/09/21 02:16:07;;;;;;;18.38;9.68;;;18.90;71.20;;;;;;4850618;29;20025;-73
2022/09/21 02:18:42;;;;;;;17.98;9.30;;;18.90;71.60;;;;;;4841644;29;20033;-73
2022/09/21 02:21:24;;;;;;;17.05;10.40;;;18.90;71.30;;;;;;4844848;29;20030;-73
2022/09/21 02:23:56;;;;;;;14.27;9.35;;;18.90;71.30;;;;;;4832286;29;20392;-72
2022/09/21 02:26:30;;;;;;;15.48;9.85;;;18.90;71.20;;;;;;4848734;29;20401;-73
2022/09/21 02:29:17;;;;;;;14.10;8.80;;;18.90;71.30;;;;;;4841213;29;20404;-73
2022/09/21 02:31:50;;;;;;;16.27;9.63;;;18.90;71.30;;;;;;4843618;29;20062;-73
2022/09/21 02:34:33;;;;;;;17.38;9.93;;;18.90;71.30;;;;;;4842325;29;20038;-73
2022/09/21 02:37:15;;;;;;;15.70;9.20;;;18.90;71.20;;;;;;4844959;29;20041;-73
2022/09/21 02:40:20;;;;;;;11.30;8.02;;;19.00;71.30;;;;;;4857175;29;20040;-73
2022/09/21 02:42:52;;;;;;;13.50;8.23;;;19.00;71.40;;;;;;4832588;29;20040;-73
2022/09/21 02:45:25;;;;;;;14.65;9.20;;;19.00;71.10;;;;;;4851173;29;20026;-73
2022/09/21 02:47:59;;;;;;;14.15;8.98;;;19.00;71.20;;;;;;4842022;29;20396;-73
2022/09/21 02:50:32;;;;;;;16.70;8.80;;;18.90;71.20;;;;;;4851889;29;20061;-73
2022/09/21 02:53:00;;;;;;;13.68;8.02;;;19.00;71.10;;;;;;4857426;29;20034;-73
2022/09/21 02:55:27;;;;;;;15.48;8.90;;;19.00;71.10;;;;;;4851876;29;20074;-73
2022/09/21 02:57:54;;;;;;;16.20;8.65;;;19.00;71.20;;;;;;4858939;29;20049;-73
2022/09/21 03:00:20;;;;;;;13.73;8.60;;;19.00;71.30;;;;;;4850958;29;20049;-73
2022/09/21 03:02:46;;;;;;;16.95;9.25;;;19.00;71.10;;;;;;4859338;29;20477;-73
2022/09/21 03:05:13;;;;;;;13.73;8.48;;;19.00;71.10;;;;;;4853021;29;20022;-73
2022/09/21 03:07:39;;;;;;;14.27;8.45;;;18.90;71.00;;;;;;4845156;29;20029;-73
2022/09/21 03:10:07;;;;;;;15.23;8.30;;;18.90;71.10;;;;;;4846428;29;20381;-73
2022/09/21 03:12:33;;;;;;;16.67;8.80;;;18.90;71.00;;;;;;4849578;29;20607;-73
2022/09/21 03:14:59;;;;;;;13.93;8.13;;;18.90;71.20;;;;;;4839352;29;20117;-73
2022/09/21 03:17:26;;;;;;;13.25;8.35;;;18.90;71.00;;;;;;4851514;29;20030;-73
2022/09/21 03:19:54;;;;;;;13.10;7.78;;;18.90;71.10;;;;;;4857115;29;20515;-73
2022/09/21 03:22:23;;;;;;;13.60;8.32;;;18.90;71.10;;;;;;4849827;29;20041;-73
2022/09/21 03:24:49;;;;;;;15.37;8.73;;;18.90;71.30;;;;;;4857989;29;20150;-73
2022/09/21 03:27:17;;;;;;;14.63;8.45;;;18.90;71.60;;;;;;4838222;29;20026;-73
2022/09/21 03:29:43;;;;;;;13.52;7.90;;;18.90;71.40;;;;;;4858972;29;20065;-73
2022/09/21 03:32:10;;;;;;;11.98;7.70;;;18.90;71.20;;;;;;4848982;29;20610;-72
2022/09/21 03:34:35;;;;;;;15.40;8.23;;;18.90;71.20;;;;;;4876608;23;20139;-72
2022/09/21 03:37:03;;;;;;;13.07;7.85;;;18.90;71.20;;;;;;4854082;29;20499;-72
2022/09/21 03:39:29;;;;;;;16.10;8.23;;;18.90;71.20;;;;;;4877216;29;20126;-71
2022/09/21 03:41:55;;;;;;;11.43;7.40;;;18.90;71.20;;;;;;4849895;29;20029;-72
2022/09/21 03:44:22;;;;;;;13.75;7.72;;;18.90;71.20;;;;;;4855295;29;20086;-72
2022/09/21 03:46:49;;;;;;;11.93;7.25;;;18.90;71.40;;;;;;4856560;29;20029;-72
2022/09/21 03:49:15;;;;;;;13.40;7.75;;;18.90;71.00;;;;;;4856069;29;20399;-71
2022/09/21 03:51:42;;;;;;;10.73;7.03;;;18.90;71.10;;;;;;4858791;29;20437;-71
2022/09/21 03:54:09;;;;;;;13.13;7.75;;;18.90;71.30;;;;;;4866944;29;20072;-71
2022/09/21 03:56:37;;;;;;;14.27;7.70;;;18.90;71.00;;;;;;4858198;29;20104;-71
2022/09/21 03:59:03;;;;;;;11.82;7.28;;;18.90;71.00;;;;;;4866440;29;20140;-71
2022/09/21 04:01:30;;;;;;;12.48;6.88;;;18.90;71.10;;;;;;4861957;29;20041;-71
2022/09/21 04:03:55;;;;;;;10.77;7.20;;;18.90;71.20;;;;;;4859092;29;20090;-71
2022/09/21 04:06:21;;;;;;;12.45;7.13;;;18.90;71.20;;;;;;4860004;29;20192;-71
2022/09/21 04:08:47;;;;;;;14.05;7.53;;;18.90;71.20;;;;;;4865414;29;20033;-71
2022/09/21 04:11:15;;;;;;;10.63;7.00;;;18.90;71.60;;;;;;4855496;29;20040;-71
2022/09/21 04:13:41;;;;;;;12.40;7.18;;;18.90;71.20;;;;;;4858608;29;20040;-71
2022/09/21 04:16:08;;;;;;;13.27;7.57;;;18.90;71.00;;;;;;4854692;29;20033;-71
2022/09/21 04:18:36;;;;;;;14.48;6.90;;;18.90;71.10;;;;;;4855302;29;20063;-71
2022/09/21 04:21:04;;;;;;;14.48;7.40;;;18.90;71.20;;;;;;4855821;29;20044;-71
2022/09/21 04:23:30;;;;;;;11.23;7.00;;;18.90;71.60;;;;;;4872348;29;20029;-70
2022/09/21 04:25:55;;;;;;;11.27;6.95;;;18.90;71.20;;;;;;4843069;29;20108;-71
2022/09/21 04:28:22;;;;;;;11.25;7.20;;;18.90;71.40;;;;;;4858691;29;20059;-71
2022/09/21 04:30:52;;;;;;;13.15;7.50;;;18.90;71.10;;;;;;4851369;29;20030;-71
2022/09/21 04:33:19;;;;;;;11.27;7.15;;;18.90;70.90;;;;;;4846817;29;20077;-71
2022/09/21 04:35:44;;;;;;;10.68;7.20;;;18.90;71.20;;;;;;4864351;29;20060;-71
2022/09/21 04:38:12;;;;;;;11.10;6.70;;;18.80;71.20;;;;;;4866671;29;20484;-72
2022/09/21 04:40:38;;;;;;;10.95;6.80;;;18.90;70.80;;;;;;4874594;29;20033;-71
2022/09/21 04:43:04;;;;;;;12.57;6.70;;;18.90;71.10;;;;;;4848811;29;20040;-71
2022/09/21 04:45:31;;;;;;;9.98;6.65;;;18.80;71.20;;;;;;4859331;29;20025;-71
2022/09/21 04:47:57;;;;;;;11.00;7.10;;;18.90;71.40;;;;;;4861521;29;20030;-71
2022/09/21 04:50:22;;;;;;;11.25;6.22;;;18.90;71.20;;;;;;4865690;29;20083;-71
2022/09/21 04:53:02;;;;;;;10.43;6.25;;;18.80;71.40;;;;;;4866336;29;20104;-71
2022/09/21 04:55:27;;;;;;;12.80;7.20;;;18.80;71.40;;;;;;4858326;29;20109;-71
2022/09/21 04:57:53;;;;;;;12.15;6.63;;;18.80;71.50;;;;;;4852169;29;20021;-71
2022/09/21 05:00:19;;;;;;;15.05;7.30;;;18.80;71.20;;;;;;4858190;29;20037;-72
2022/09/21 05:02:45;;;;;;;11.45;6.88;;;18.80;71.40;;;;;;4849922;29;20033;-71
2022/09/21 05:05:11;;;;;;;11.15;6.45;;;18.80;71.20;;;;;;4840302;29;20392;-72
2022/09/21 05:07:36;;;;;;;14.23;6.53;;;18.80;71.20;;;;;;4868785;29;20562;-71
2022/09/21 05:10:02;;;;;;;8.85;6.22;;;18.80;71.60;;;;;;4871222;29;20037;-71
2022/09/21 05:12:29;;;;;;;11.77;6.32;;;18.80;71.20;;;;;;4865926;29;20093;-71
2022/09/21 05:14:55;;;;;;;10.48;6.63;;;18.80;71.50;;;;;;4825386;29;20021;-71
2022/09/21 05:17:21;;;;;;;11.85;6.55;;;18.80;71.50;;;;;;4867292;29;20395;-71
2022/09/21 05:19:49;;;;;;;11.50;6.55;;;18.80;71.40;;;;;;4857210;29;20049;-71
2022/09/21 05:22:15;;;;;;;10.43;6.18;;;18.80;71.30;;;;;;4834549;29;20045;-71
2022/09/21 05:24:41;;;;;;;10.68;6.28;;;18.80;71.30;;;;;;4858003;29;20040;-71
2022/09/21 05:27:07;;;;;;;9.95;6.20;;;18.80;71.30;;;;;;4863407;29;20057;-71
2022/09/21 05:29:33;;;;;;;10.60;6.28;;;18.80;71.60;;;;;;4844817;29;20040;-71
2022/09/21 05:32:18;;;;;;;9.93;5.97;;;18.80;71.20;;;;;;4863888;29;20077;-71
2022/09/21 05:35:12;;;;;;;9.60;6.40;;;18.80;71.40;;;;;;4824064;29;20068;-71
2022/09/21 05:37:44;;;;;;;9.98;6.13;;;18.80;71.10;;;;;;4869357;29;20175;-71
2022/09/21 05:40:11;;;;;;;11.55;6.22;;;18.80;70.80;;;;;;4867986;29;20029;-70
2022/09/21 05:42:37;;;;;;;10.90;5.82;;;18.90;70.70;;;;;;4859928;29;20029;-71
2022/09/21 05:45:04;;;;;;;9.38;5.82;;;18.90;71.10;;;;;;4832234;29;20037;-71
2022/09/21 05:47:36;;;;;;;8.75;5.28;;;18.90;71.10;;;;;;4834178;29;20037;-71
2022/09/21 05:50:17;;;;;;;12.07;6.07;;;18.90;71.40;;;;;;4848558;29;20026;-72
2022/09/21 05:53:25;;;;;;;10.32;5.88;;;18.90;71.00;;;;;;4869553;29;20029;-72
2022/09/21 05:55:56;;;;;;;8.90;5.60;;;18.90;71.00;;;;;;4831891;29;20064;-71
2022/09/21 05:58:59;;;;;;;11.90;6.15;;;18.90;70.90;;;;;;4841808;29;20124;-72
2022/09/21 06:01:42;;;;;;;8.65;5.65;;;18.80;70.90;;;;;;4866455;29;20037;-72
2022/09/21 06:04:13;;;;;;;8.80;5.65;;;18.90;70.80;;;;;;4876862;29;20041;-71
2022/09/21 06:06:39;;;;;;;11.05;6.05;;;18.90;70.70;;;;;;4853529;29;20426;-72
2022/09/21 06:09:05;;;;;;;9.48;5.90;;;18.90;71.00;;;;;;4859604;29;20033;-72
2022/09/21 06:11:31;;;;;;;10.50;6.05;;;18.90;70.90;;;;;;4869315;29;20033;-71
2022/09/21 06:13:56;;;;;;;9.60;5.80;;;18.90;71.00;;;;;;4854845;29;20034;-71
2022/09/21 06:16:22;;;;;;;10.35;5.85;;;18.90;71.00;;;;;;4878582;29;20029;-71
2022/09/21 06:18:48;;;;;;;8.95;5.50;;;18.90;70.50;;;;;;4867776;29;20029;-72
2022/09/21 06:21:17;;;;;;;10.27;5.75;;;18.90;71.10;;;;;;4855109;29;20086;-72
2022/09/21 06:23:42;;;;;;;8.57;5.55;;;18.90;70.80;;;;;;4863094;29;20029;-71
2022/09/21 06:26:08;;;;;;;10.48;5.90;;;18.80;71.10;;;;;;4856097;29;20176;-71
2022/09/21 06:28:34;;;;;;;9.90;5.95;;;18.90;71.00;;;;;;4871873;29;20399;-71
2022/09/21 06:31:00;;;;;;;12.02;5.68;;;18.90;71.40;;;;;;4832054;29;20503;-71
2022/09/21 06:33:25;;;;;;;9.25;5.70;;;18.80;71.10;;;;;;4869174;29;20085;-71
2022/09/21 06:35:56;;;;;;;9.23;5.20;;;18.90;71.10;;;;;;4862617;29;20025;-71
2022/09/21 06:38:23;;;;;;;7.93;5.20;;;18.90;71.00;;;;;;4860298;29;20033;-71
2022/09/21 06:40:50;;;;;;;10.07;5.55;;;18.80;70.70;;;;;;4857132;29;20036;-72
2022/09/21 06:43:16;;;;;;;10.35;5.50;;;18.80;70.70;;;;;;4847677;29;20060;-72
2022/09/21 06:45:42;;;;;;;8.48;5.25;;;18.80;71.00;;;;;;4852926;29;20030;-71
2022/09/21 06:48:08;;;;;;;11.15;6.03;;;18.80;70.60;;;;;;4868909;29;20048;-71
2022/09/21 06:50:34;;;;;;;13.27;5.70;;;18.90;70.80;;;;;;4862721;29;20025;-71
2022/09/21 06:53:01;;;;;;;10.27;5.40;;;18.80;71.00;;;;;;4862655;29;20057;-72
2022/09/21 06:55:31;;;;;;;10.23;5.35;;;18.80;70.80;;;;;;4871690;29;20030;-72
2022/09/21 06:58:01;;;;;;;10.90;5.68;;;18.80;70.90;;;;;;4855290;29;20026;-72
2022/09/21 07:00:28;;;;;;;8.98;5.40;;;18.80;71.10;;;;;;4861961;29;20037;-72
2022/09/21 07:02:54;;;;;;;8.70;5.53;;;18.80;71.10;;;;;;4847192;29;20025;-71
2022/09/21 07:05:19;;;;;;;9.90;5.00;;;18.80;70.70;;;;;;4846372;29;20552;-72
2022/09/21 07:07:45;;;;;;;9.90;5.47;;;18.80;71.40;;;;;;4867446;29;20059;-72
2022/09/21 07:10:11;;;;;;;8.50;5.07;;;18.80;71.40;;;;;;4839437;29;20029;-72
2022/09/21 07:12:37;;;;;;;9.63;5.13;;;18.80;70.90;;;;;;4831154;29;20119;-72
2022/09/21 07:15:04;;;;;;;8.70;5.40;;;18.80;71.20;;;;;;4871293;29;20029;-72
2022/09/21 07:17:35;;;;;;;9.63;5.15;;;18.80;71.30;;;;;;4846689;29;20495;-72
2022/09/21 07:20:01;;;;;;;9.63;5.35;;;18.80;71.40;;;;;;4856001;29;20024;-72
2022/09/21 07:22:28;;;;;;;11.30;5.20;;;18.80;71.30;;;;;;4870675;29;20037;-72
2022/09/21 07:24:54;;;;;;;10.35;5.38;;;18.80;71.20;;;;;;4851321;29;20057;-72
2022/09/21 07:27:20;;;;;;;9.55;5.55;;;18.80;71.40;;;;;;4866788;29;20032;-72
2022/09/21 07:29:46;;;;;;;9.00;4.93;;;18.80;70.90;;;;;;4847849;29;20033;-72
2022/09/21 07:32:12;;;;;;;8.10;5.25;;;18.80;71.10;;;;;;4862917;29;20069;-72
2022/09/21 07:34:38;;;;;;;10.10;5.05;;;18.80;70.50;;;;;;4835506;29;20033;-72
2022/09/21 07:37:04;;;;;;;9.68;5.25;;;18.80;70.50;;;;;;4846772;29;20113;-72
2022/09/21 07:39:30;;;;;;;11.05;5.05;;;18.80;69.70;;;;;;4852143;29;20053;-72
2022/09/21 07:41:58;;;;;;;9.90;4.97;;;18.90;70.00;;;;;;4855594;29;20057;-71
2022/09/21 07:44:25;;;;;;;8.93;5.05;;;18.90;70.20;;;;;;4842818;29;20125;-71
2022/09/21 07:46:51;;;;;;;8.52;5.00;;;18.90;70.20;;;;;;4847573;29;20028;-72
2022/09/21 07:49:16;;;;;;;8.60;4.80;;;18.90;69.80;;;;;;4848926;29;20086;-72
2022/09/21 07:51:42;;;;;;;10.15;4.93;;;18.90;69.40;;;;;;4856553;29;20030;-72
2022/09/21 07:54:09;;;;;;;8.60;5.10;;;19.00;69.50;;;;;;4842244;29;20026;-72
2022/09/21 07:56:38;;;;;;;9.30;4.88;;;18.90;69.50;;;;;;4859046;29;20081;-71
2022/09/21 07:59:04;;;;;;;12.90;5.23;;;19.00;69.60;;;;;;4859635;29;20038;-71
2022/09/21 08:01:38;;;;;;;8.20;5.20;;;18.90;69.50;;;;;;4861047;29;20052;-71
2022/09/21 08:04:06;;;;;;;10.48;4.90;;;18.90;69.80;;;;;;4861267;29;20507;-71
2022/09/21 08:06:34;;;;;;;10.20;4.50;;;18.90;69.60;;;;;;4852613;29;20044;-71
2022/09/21 08:09:00;;;;;;;14.25;4.95;;;19.00;70.40;;;;;;4818461;29;20404;-71
2022/09/21 08:11:29;;;;;;;7.50;4.75;;;19.00;69.90;;;;;;4848466;29;20065;-71
2022/09/21 08:13:59;;;;;;;10.13;4.60;;;18.90;69.80;;;;;;4842640;29;20046;-72
2022/09/21 08:16:26;;;;;;;12.13;4.95;;;18.90;70.00;;;;;;4859496;29;20094;-71
2022/09/21 08:18:52;;;;;;;11.50;5.05;;;18.90;70.00;;;;;;4870229;29;20032;-71
2022/09/21 08:21:19;;;;;;;10.25;5.57;;;18.90;70.50;;;;;;4873206;29;20456;-72
2022/09/21 08:23:48;;;;;;;9.32;5.22;;;18.90;70.10;;;;;;4869700;29;20425;-72
2022/09/21 08:26:17;;;;;;;11.18;5.00;;;18.90;70.40;;;;;;4845090;29;20068;-71
2022/09/21 08:28:47;;;;;;;;;;;18.90;71.00;;;;;;4860018;29;20403;-72
2022/09/21 08:31:14;;;;;;;;;;;18.90;70.60;;;;;;4841893;29;20374;-72
2022/09/21 08:33:40;;;;;;;9.25;5.00;;;18.90;70.80;;;;;;4868119;29;19919;-72
2022/09/21 08:36:06;;;;;;;10.32;5.40;;;18.90;70.90;;;;;;4870034;29;20475;-71
2022/09/21 08:38:34;;;;;;;9.93;5.28;;;18.90;70.80;;;;;;4844439;29;20068;-72
2022/09/21 08:41:01;;;;;;;11.02;4.63;;;18.90;71.00;;;;;;4842710;29;20038;-72
2022/09/21 08:43:41;;;;;;;10.15;4.78;;;18.90;71.10;;;;;;4864999;29;20048;-71
2022/09/21 08:46:14;;;;;;;10.48;4.40;;;18.90;71.00;;;;;;4857614;29;20040;-72
2022/09/21 08:48:45;;;;;;;10.82;4.95;;;18.90;70.80;;;;;;4854021;29;20029;-72
2022/09/21 08:51:20;;;;;;;16.08;5.22;;;18.90;70.90;;;;;;4845211;29;20108;-73
2022/09/21 08:53:50;;;;;;;14.30;5.47;;;19.00;71.50;;;;;;4851983;29;20033;-72
2022/09/21 08:56:17;;;;;;;14.07;5.28;;;19.00;71.20;;;;;;4876260;29;20036;-72
2022/09/21 08:58:43;;;;;;;10.60;5.22;;;19.00;71.70;;;;;;4841314;29;20194;-73
2022/09/21 09:01:33;;;;;;;15.35;4.85;;;19.00;72.10;;;;;;4839580;29;20507;-72
2022/09/21 09:04:22;;;;;;;15.75;6.00;;;19.10;72.60;;;;;;4822464;29;20511;-72
2022/09/21 09:07:00;;;;;;;14.88;5.40;;;19.10;73.30;;;;;;4839452;29;20089;-73
2022/09/21 09:09:55;;;;;;;22.08;6.07;;;19.20;73.30;;;;;;4856101;29;20045;-73
2022/09/21 09:12:52;;;;;;;13.77;5.63;;;19.20;72.70;;;;;;4841780;29;20120;-72
2022/09/21 09:15:43;;;;;;;11.68;5.28;;;19.20;72.40;;;;;;4858280;29;20034;-73
2022/09/21 09:18:32;;;;;;;13.57;5.22;;;19.20;72.00;;;;;;4857946;29;20141;-74
2022/09/21 09:21:28;;;;;;;;;;;19.30;74.10;;;;;;4864143;29;20186;-72
2022/09/21 09:24:15;;;;;;;16.77;5.75;;;19.30;74.00;;;;;;4848735;29;20359;-72
2022/09/21 09:26:56;;;;;;;22.75;5.68;;;19.30;73.50;;;;;;4845093;29;20120;-72
2022/09/21 09:29:39;;;;;;;19.80;5.60;;;19.30;72.70;;;;;;4838327;29;20083;-72
2022/09/21 09:32:15;;;;;;;26.50;7.18;;;19.30;72.70;;;;;;4861951;29;20032;-73
2022/09/21 09:34:52;;;;;;;18.17;6.53;;;19.30;73.50;;;;;;4850835;29;20033;-73
2022/09/21 09:37:22;;;;;;;16.55;5.90;;;19.20;72.90;;;;;;4851627;29;20108;-73
2022/09/21 09:39:52;;;;;;;;;;;19.30;73.90;;;;;;4856480;29;20032;-72
2022/09/21 09:42:18;;;;;;;;;;;19.30;73.10;;;;;;4858990;29;19960;-72
2022/09/21 09:44:52;;;;;;;14.65;5.80;;;19.30;74.10;;;;;;4857346;29;20358;-72
2022/09/21 09:47:48;;;;;;;18.52;6.03;;;19.30;73.90;;;;;;4837918;29;20366;-72
2022/09/21 09:50:27;;;;;;;12.98;5.45;;;19.30;72.40;;;;;;4866288;29;20033;-73
2022/09/21 09:52:58;;;;;;;23.10;5.80;;;19.30;72.30;;;;;;4860559;29;20040;-73
2022/09/21 09:55:33;;;;;;;25.33;6.75;;;19.30;73.10;;;;;;4826747;29;20034;-73
2022/09/21 09:57:59;;;;;;;21.10;5.93;;;19.30;73.60;;;;;;4877211;29;20028;-73
2022/09/21 10:00:25;;;;;;;11.95;5.40;;;19.40;72.80;;;;;;4840856;29;20045;-73
2022/09/21 10:02:53;;;;;;;18.60;5.85;;;19.30;72.40;;;;;;4863864;29;20068;-74
2022/09/21 10:05:32;;;;;;;23.17;7.18;;;19.40;72.50;;;;;;4841300;29;20101;-73
2022/09/21 10:07:59;;;;;;;22.70;11.25;;;19.40;72.90;;;;;;4846375;29;20063;-74
2022/09/21 10:10:27;;;;;;;18.48;9.90;;;19.40;73.50;;;;;;4829871;29;20033;-73
2022/09/21 10:12:56;;;;;;;27.27;11.43;;;19.40;73.60;;;;;;4845538;29;20033;-73
2022/09/21 10:15:25;;;;;;;24.27;10.20;;;19.50;74.50;;;;;;4807768;29;20076;-73
2022/09/21 10:18:09;;;;;;;17.60;10.90;;;19.50;74.00;;;;;;4837128;29;20025;-72
2022/09/21 10:20:35;;;;;;;18.67;9.35;;;19.50;73.90;;;;;;4853721;29;20427;-74
2022/09/21 10:23:02;;;;;;;23.80;10.23;;;19.50;73.60;;;;;;4867528;29;20104;-73
2022/09/21 10:25:29;;;;;;;23.23;10.90;;;19.40;73.30;;;;;;4879312;29;20406;-73
2022/09/21 10:27:55;;;;;;;19.17;8.32;;;19.30;72.50;;;;;;4861323;29;20017;-74
2022/09/21 10:30:34;;;;;;;20.73;8.95;;;19.30;71.60;;;;;;4829356;29;20504;-76
2022/09/21 10:33:00;;;;;;;15.52;7.07;;;19.30;71.50;;;;;;4859164;29;20030;-78
2022/09/21 10:35:26;;;;;;;24.30;7.18;;;19.30;71.50;;;;;;4847966;29;20038;-79
2022/09/21 10:38:17;;;;;;;27.15;8.48;;;19.40;72.60;;;;;;4853819;29;20041;-77
2022/09/21 10:40:45;;;;;;;23.30;7.90;;;19.40;70.80;;;;;;4848592;29;20044;-77
2022/09/21 10:43:41;;;;;;;20.45;7.55;;;19.40;71.30;;;;;;4856085;29;20133;-78
2022/09/21 10:46:07;;;;;;;24.88;7.35;;;19.30;71.30;;;;;;4868262;29;20072;-77
2022/09/21 10:48:33;;;;;;;22.05;7.72;;;19.20;71.40;;;;;;4877436;29;20060;-77
2022/09/21 10:50:59;;;;;;;21.75;6.80;;;19.20;71.40;;;;;;4863468;29;20116;-77
2022/09/21 10:53:30;;;;;;;19.85;6.85;;;19.20;71.50;;;;;;4846673;29;20127;-77
2022/09/21 10:56:04;;;;;;;19.52;8.00;;;19.20;71.60;;;;;;4862849;29;20104;-77
2022/09/21 10:58:32;;;;;;;18.40;6.32;;;19.20;71.50;;;;;;4862756;29;20029;-78
2022/09/21 11:01:22;;;;;;;16.13;6.05;;;19.20;71.50;;;;;;4847482;29;20493;-78
2022/09/21 11:04:10;;;;;;;17.17;6.30;;;19.20;71.40;;;;;;4862275;29;20032;-78
2022/09/21 11:06:43;;;;;;;20.48;7.18;;;19.20;71.20;;;;;;4879430;29;20487;-78
2022/09/21 11:09:15;;;;;;;11.15;6.22;;;19.20;71.60;;;;;;4878811;29;20037;-78
2022/09/21 11:12:28;;;;;;;15.98;6.75;;;19.20;71.60;;;;;;4879160;29;20437;-78
2022/09/21 11:15:15;;;;;;;16.05;6.78;;;19.20;71.70;;;;;;4824193;29;20433;-78
2022/09/21 11:17:50;;;;;;;16.63;6.60;;;19.20;71.70;;;;;;4794350;29;20065;-78
2022/09/21 11:20:38;;;;;;;14.63;6.45;;;19.20;71.70;;;;;;4852347;29;20033;-78
2022/09/21 11:23:58;;;;;;;16.90;6.32;;;19.20;71.50;;;;;;4878816;29;20108;-79
2022/09/21 11:26:42;;;;;;;11.57;6.43;;;19.20;71.50;;;;;;4830943;29;20519;-79
2022/09/21 11:29:14;;;;;;;12.30;6.15;;;19.20;71.40;;;;;;4878998;29;20025;-79
2022/09/21 11:32:15;;;;;;;13.15;6.60;;;19.20;71.30;;;;;;4831658;29;20048;-79
2022/09/21 11:35:14;;;;;;;15.68;7.05;;;19.20;71.30;;;;;;4862190;29;20123;-78
2022/09/21 11:37:53;;;;;;;14.32;6.75;;;19.20;71.20;;;;;;4862330;29;20036;-78
2022/09/21 11:40:54;;;;;;;16.17;6.60;;;19.20;71.20;;;;;;4846753;29;20044;-78
2022/09/21 11:43:44;;;;;;;14.55;6.40;;;19.20;71.20;;;;;;4846285;29;20064;-78
2022/09/21 11:46:17;;;;;;;15.32;6.22;;;19.20;71.00;;;;;;4846879;29;20108;-78
2022/09/21 11:49:14;;;;;;;13.57;6.25;;;19.20;71.10;;;;;;4846496;29;20113;-78
2022/09/21 11:52:12;;;;;;;14.73;6.90;;;19.20;70.80;;;;;;4861819;29;20152;-78
2022/09/21 11:54:59;;;;;;;14.73;6.75;;;19.20;70.80;;;;;;4878300;29;20110;-78
2022/09/21 11:57:37;;;;;;;15.30;6.18;;;19.20;70.80;;;;;;4862378;29;20033;-78
2022/09/21 12:00:08;;;;;;;9.95;5.75;;;19.20;70.60;;;;;;4861475;29;20484;-78
2022/09/21 12:02:50;;;;;;;12.30;6.18;;;19.20;70.80;;;;;;4878162;29;20029;-78
2022/09/21 12:05:23;;;;;;;13.43;5.90;;;19.30;70.70;;;;;;4846346;29;20040;-79
2022/09/21 12:08:27;;;;;;;13.40;5.72;;;19.20;70.80;;;;;;4861722;29;20047;-78
2022/09/21 12:10:58;;;;;;;13.35;6.60;;;19.20;70.70;;;;;;4846542;29;20063;-78
2022/09/21 12:13:43;;;;;;;10.70;5.65;;;19.20;70.80;;;;;;4845865;29;20041;-78
2022/09/21 12:16:28;;;;;;;13.60;6.10;;;19.20;70.70;;;;;;4878600;29;20128;-78
2022/09/21 12:19:08;;;;;;;11.77;5.80;;;19.20;70.70;;;;;;4877964;29;20032;-78
2022/09/21 12:21:43;;;;;;;13.52;6.40;;;19.20;70.70;;;;;;4861430;29;20037;-78
2022/09/21 12:24:32;;;;;;;14.55;6.00;;;19.30;70.80;;;;;;4846108;29;20060;-78
2022/09/21 12:27:07;;;;;;;10.20;5.88;;;19.30;70.60;;;;;;4855385;29;20473;-78
2022/09/21 12:29:43;;;;;;;12.48;5.78;;;19.30;70.40;;;;;;4845801;29;20033;-78
2022/09/21 12:32:11;;;;;;;13.13;6.20;;;19.30;70.50;;;;;;4860751;29;20059;-78
2022/09/21 12:34:49;;;;;;;11.90;6.07;;;19.30;70.50;;;;;;4877684;29;20045;-78
2022/09/21 12:37:36;;;;;;;11.90;5.80;;;19.30;70.60;;;;;;4830840;29;20037;-78
2022/09/21 12:40:18;;;;;;;10.70;5.63;;;19.20;70.80;;;;;;4845888;29;20059;-78
2022/09/21 12:42:47;;;;;;;12.27;5.43;;;19.20;70.80;;;;;;4860180;29;20571;-77
2022/09/21 12:45:16;;;;;;;13.00;5.73;;;19.20;70.90;;;;;;4861049;29;20097;-77
2022/09/21 12:47:54;;;;;;;10.38;5.38;;;19.20;70.90;;;;;;4860712;29;20273;-77
2022/09/21 12:50:45;;;;;;;11.00;5.28;;;19.20;70.90;;;;;;4860844;29;20033;-78
2022/09/21 12:53:19;;;;;;;14.10;5.63;;;19.20;70.80;;;;;;4860603;29;20041;-79
2022/09/21 12:56:10;;;;;;;9.38;5.50;;;19.20;70.60;;;;;;4860787;29;20499;-78
2022/09/21 12:58:50;;;;;;;10.15;5.68;;;19.20;70.80;;;;;;4845635;29;20373;-78
2022/09/21 13:01:30;;;;;;;10.63;5.15;;;19.20;70.80;;;;;;4861004;29;20029;-78
2022/09/21 13:04:02;;;;;;;20.85;6.35;;;19.20;70.80;;;;;;4824433;29;20564;-81
2022/09/21 13:06:46;;;;;;;11.77;5.45;;;19.30;70.90;;;;;;4842129;29;20034;-78